sensor_id;sensor_type;location;lat;lon;timestamp;P1;durP1;ratioP1;P2;durP2;ratioP2
9140;SDS011;46330;50.822;7.126;2022-07-29T00:01:41;3.10;;;1.65;;
9140;SDS011;46330;50.822;7.126;2022-07-29T00:04:10;3.20;;;1.52;;
9140;SDS011;46330;50.822;7.126;2022-07-29T00:06:39;5.60;;;1.65;;
9140;SDS011;46330;50.822;7.126;2022-07-29T00:09:07;3.33;;;1.60;;
9140;SDS011;46330;50.822;7.126;2022-07-29T00:11:35;5.63;;;1.50;;
9140;SDS011;46330;50.822;7.126;2022-07-29T00:14:03;4.63;;;1.58;;
9140;SDS011;46330;50.822;7.126;2022-07-29T00:16:32;8.57;;;2.10;;
9140;SDS011;46330;50.822;7.126;2022-07-29T00:19:02;5.05;;;1.52;;
9140;SDS011;46330;50.822;7.126;2022-07-29T00:21:33;3.50;;;1.60;;
9140;SDS011;46330;50.822;7.126;2022-07-29T00:24:01;3.65;;;1.60;;
9140;SDS011;46330;50.822;7.126;2022-07-29T00:26:28;4.78;;;1.58;;
9140;SDS011;46330;50.822;7.126;2022-07-29T00:28:58;6.00;;;1.88;;
9140;SDS011;46330;50.822;7.126;2022-07-29T00:31:46;5.28;;;2.08;;
9140;SDS011;46330;50.822;7.126;2022-07-29T00:34:15;4.43;;;1.95;;
9140;SDS011;46330;50.822;7.126;2022-07-29T00:37:01;5.43;;;1.77;;
9140;SDS011;46330;50.822;7.126;2022-07-29T00:39:29;3.75;;;1.48;;
9140;SDS011;46330;50.822;7.126;2022-07-29T00:41:57;3.63;;;1.70;;
9140;SDS011;46330;50.822;7.126;2022-07-29T00:44:25;5.20;;;1.67;;
9140;SDS011;46330;50.822;7.126;2022-07-29T00:46:52;5.43;;;1.63;;
9140;SDS011;46330;50.822;7.126;2022-07-29T00:49:22;3.40;;;1.77;;
9140;SDS011;46330;50.822;7.126;2022-07-29T00:51:50;1.88;;;1.40;;
9140;SDS011;46330;50.822;7.126;2022-07-29T00:54:18;6.82;;;1.80;;
9140;SDS011;46330;50.822;7.126;2022-07-29T00:56:46;3.22;;;1.70;;
9140;SDS011;46330;50.822;7.126;2022-07-29T00:59:14;4.22;;;1.77;;
9140;SDS011;46330;50.822;7.126;2022-07-29T01:01:43;6.40;;;1.83;;
9140;SDS011;46330;50.822;7.126;2022-07-29T01:04:11;3.22;;;1.85;;
9140;SDS011;46330;50.822;7.126;2022-07-29T01:06:41;4.35;;;1.80;;
9140;SDS011;46330;50.822;7.126;2022-07-29T01:09:10;4.40;;;1.67;;
9140;SDS011;46330;50.822;7.126;2022-07-29T01:11:39;4.93;;;1.80;;
9140;SDS011;46330;50.822;7.126;2022-07-29T01:14:07;4.45;;;1.75;;
9140;SDS011;46330;50.822;7.126;2022-07-29T01:16:37;7.30;;;1.83;;
9140;SDS011;46330;50.822;7.126;2022-07-29T01:19:13;5.25;;;1.92;;
9140;SDS011;46330;50.822;7.126;2022-07-29T01:21:59;5.28;;;1.98;;
9140;SDS011;46330;50.822;7.126;2022-07-29T01:24:46;3.50;;;2.03;;
9140;SDS011;46330;50.822;7.126;2022-07-29T01:27:31;5.88;;;2.30;;
9140;SDS011;46330;50.822;7.126;2022-07-29T01:30:09;6.03;;;2.50;;
9140;SDS011;46330;50.822;7.126;2022-07-29T01:32:40;4.35;;;2.08;;
9140;SDS011;46330;50.822;7.126;2022-07-29T01:35:15;9.57;;;2.55;;
9140;SDS011;46330;50.822;7.126;2022-07-29T01:37:50;4.68;;;2.30;;
9140;SDS011;46330;50.822;7.126;2022-07-29T01:40:24;8.52;;;2.55;;
9140;SDS011;46330;50.822;7.126;2022-07-29T01:42:55;7.70;;;3.13;;
9140;SDS011;46330;50.822;7.126;2022-07-29T01:45:29;8.77;;;2.70;;
9140;SDS011;46330;50.822;7.126;2022-07-29T01:48:04;10.05;;;3.10;;
9140;SDS011;46330;50.822;7.126;2022-07-29T01:50:40;8.93;;;2.55;;
9140;SDS011;46330;50.822;7.126;2022-07-29T01:53:14;5.97;;;2.17;;
9140;SDS011;46330;50.822;7.126;2022-07-29T01:56:00;6.07;;;2.38;;
9140;SDS011;46330;50.822;7.126;2022-07-29T01:58:29;5.30;;;2.10;;
9140;SDS011;46330;50.822;7.126;2022-07-29T02:01:01;3.40;;;1.98;;
9140;SDS011;46330;50.822;7.126;2022-07-29T02:03:31;3.38;;;2.10;;
9140;SDS011;46330;50.822;7.126;2022-07-29T02:06:03;5.90;;;2.50;;
9140;SDS011;46330;50.822;7.126;2022-07-29T02:08:34;4.93;;;2.30;;
9140;SDS011;46330;50.822;7.126;2022-07-29T02:11:04;3.70;;;2.00;;
9140;SDS011;46330;50.822;7.126;2022-07-29T02:13:35;5.90;;;2.00;;
9140;SDS011;46330;50.822;7.126;2022-07-29T02:16:06;6.53;;;2.40;;
9140;SDS011;46330;50.822;7.126;2022-07-29T02:18:36;4.55;;;2.17;;
9140;SDS011;46330;50.822;7.126;2022-07-29T02:21:08;3.83;;;2.05;;
9140;SDS011;46330;50.822;7.126;2022-07-29T02:23:41;5.53;;;2.42;;
9140;SDS011;46330;50.822;7.126;2022-07-29T02:26:17;4.57;;;2.00;;
9140;SDS011;46330;50.822;7.126;2022-07-29T02:28:47;4.13;;;2.13;;
9140;SDS011;46330;50.822;7.126;2022-07-29T02:31:18;8.93;;;2.17;;
9140;SDS011;46330;50.822;7.126;2022-07-29T02:33:50;2.67;;;2.03;;
9140;SDS011;46330;50.822;7.126;2022-07-29T02:36:21;7.70;;;2.33;;
9140;SDS011;46330;50.822;7.126;2022-07-29T02:38:50;8.52;;;2.60;;
9140;SDS011;46330;50.822;7.126;2022-07-29T02:41:20;6.28;;;2.40;;
9140;SDS011;46330;50.822;7.126;2022-07-29T02:43:53;7.18;;;2.53;;
9140;SDS011;46330;50.822;7.126;2022-07-29T02:46:28;10.45;;;2.85;;
9140;SDS011;46330;50.822;7.126;2022-07-29T02:48:59;9.75;;;2.60;;
9140;SDS011;46330;50.822;7.126;2022-07-29T02:51:33;5.88;;;2.30;;
9140;SDS011;46330;50.822;7.126;2022-07-29T02:54:10;6.18;;;2.50;;
9140;SDS011;46330;50.822;7.126;2022-07-29T02:59:13;9.48;;;3.05;;
9140;SDS011;46330;50.822;7.126;2022-07-29T03:01:49;9.10;;;3.00;;
9140;SDS011;46330;50.822;7.126;2022-07-29T03:04:19;7.22;;;2.80;;
9140;SDS011;46330;50.822;7.126;2022-07-29T03:06:50;10.35;;;2.70;;
9140;SDS011;46330;50.822;7.126;2022-07-29T03:09:19;6.55;;;2.70;;
9140;SDS011;46330;50.822;7.126;2022-07-29T03:11:49;7.13;;;2.58;;
9140;SDS011;46330;50.822;7.126;2022-07-29T03:14:17;5.00;;;2.40;;
9140;SDS011;46330;50.822;7.126;2022-07-29T03:16:46;5.47;;;2.95;;
9140;SDS011;46330;50.822;7.126;2022-07-29T03:19:17;4.25;;;2.78;;
9140;SDS011;46330;50.822;7.126;2022-07-29T03:21:46;5.60;;;3.67;;
9140;SDS011;46330;50.822;7.126;2022-07-29T03:24:27;9.27;;;3.42;;
9140;SDS011;46330;50.822;7.126;2022-07-29T03:26:56;10.18;;;3.15;;
9140;SDS011;46330;50.822;7.126;2022-07-29T03:29:25;6.47;;;3.10;;
9140;SDS011;46330;50.822;7.126;2022-07-29T03:31:59;9.45;;;2.90;;
9140;SDS011;46330;50.822;7.126;2022-07-29T03:34:30;6.00;;;2.72;;
9140;SDS011;46330;50.822;7.126;2022-07-29T03:36:58;4.75;;;2.53;;
9140;SDS011;46330;50.822;7.126;2022-07-29T03:39:27;4.30;;;2.40;;
9140;SDS011;46330;50.822;7.126;2022-07-29T03:41:58;4.95;;;2.50;;
9140;SDS011;46330;50.822;7.126;2022-07-29T03:44:28;9.30;;;2.80;;
9140;SDS011;46330;50.822;7.126;2022-07-29T03:46:57;4.95;;;2.80;;
9140;SDS011;46330;50.822;7.126;2022-07-29T03:49:28;6.38;;;2.40;;
9140;SDS011;46330;50.822;7.126;2022-07-29T03:51:59;7.70;;;2.63;;
9140;SDS011;46330;50.822;7.126;2022-07-29T03:54:27;7.63;;;2.60;;
9140;SDS011;46330;50.822;7.126;2022-07-29T03:56:55;5.85;;;2.28;;
9140;SDS011;46330;50.822;7.126;2022-07-29T03:59:26;6.65;;;2.42;;
9140;SDS011;46330;50.822;7.126;2022-07-29T04:01:55;5.07;;;2.63;;
9140;SDS011;46330;50.822;7.126;2022-07-29T04:04:24;5.55;;;2.40;;
9140;SDS011;46330;50.822;7.126;2022-07-29T04:06:55;5.53;;;2.50;;
9140;SDS011;46330;50.822;7.126;2022-07-29T04:09:23;5.68;;;2.40;;
9140;SDS011;46330;50.822;7.126;2022-07-29T04:11:51;7.50;;;2.50;;
9140;SDS011;46330;50.822;7.126;2022-07-29T04:14:30;3.58;;;2.30;;
9140;SDS011;46330;50.822;7.126;2022-07-29T04:16:58;9.75;;;2.80;;
9140;SDS011;46330;50.822;7.126;2022-07-29T04:19:26;4.82;;;2.30;;
9140;SDS011;46330;50.822;7.126;2022-07-29T04:21:55;5.55;;;2.30;;
9140;SDS011;46330;50.822;7.126;2022-07-29T04:24:23;5.90;;;2.30;;
9140;SDS011;46330;50.822;7.126;2022-07-29T04:26:51;6.28;;;2.00;;
9140;SDS011;46330;50.822;7.126;2022-07-29T04:29:19;4.15;;;2.00;;
9140;SDS011;46330;50.822;7.126;2022-07-29T04:31:47;4.22;;;2.17;;
9140;SDS011;46330;50.822;7.126;2022-07-29T04:34:15;6.63;;;2.15;;
9140;SDS011;46330;50.822;7.126;2022-07-29T04:36:44;5.00;;;2.20;;
9140;SDS011;46330;50.822;7.126;2022-07-29T04:39:14;7.03;;;2.17;;
9140;SDS011;46330;50.822;7.126;2022-07-29T04:44:21;4.15;;;1.92;;
9140;SDS011;46330;50.822;7.126;2022-07-29T04:46:54;5.22;;;2.10;;
9140;SDS011;46330;50.822;7.126;2022-07-29T04:49:23;5.30;;;2.10;;
9140;SDS011;46330;50.822;7.126;2022-07-29T04:51:51;5.18;;;2.00;;
9140;SDS011;46330;50.822;7.126;2022-07-29T04:54:20;6.18;;;2.15;;
9140;SDS011;46330;50.822;7.126;2022-07-29T04:56:48;4.63;;;2.10;;
9140;SDS011;46330;50.822;7.126;2022-07-29T04:59:16;8.73;;;2.00;;
9140;SDS011;46330;50.822;7.126;2022-07-29T05:01:44;5.90;;;2.22;;
9140;SDS011;46330;50.822;7.126;2022-07-29T05:04:12;5.78;;;2.17;;
9140;SDS011;46330;50.822;7.126;2022-07-29T05:06:40;15.45;;;2.50;;
9140;SDS011;46330;50.822;7.126;2022-07-29T05:09:08;5.50;;;2.30;;
9140;SDS011;46330;50.822;7.126;2022-07-29T05:11:37;4.00;;;2.28;;
9140;SDS011;46330;50.822;7.126;2022-07-29T05:14:05;4.80;;;2.00;;
9140;SDS011;46330;50.822;7.126;2022-07-29T05:16:33;6.00;;;1.85;;
9140;SDS011;46330;50.822;7.126;2022-07-29T05:19:01;6.82;;;2.38;;
9140;SDS011;46330;50.822;7.126;2022-07-29T05:21:28;6.40;;;2.47;;
9140;SDS011;46330;50.822;7.126;2022-07-29T05:23:56;7.97;;;2.20;;
9140;SDS011;46330;50.822;7.126;2022-07-29T05:26:24;6.22;;;2.05;;
9140;SDS011;46330;50.822;7.126;2022-07-29T05:28:53;10.20;;;2.45;;
9140;SDS011;46330;50.822;7.126;2022-07-29T05:31:21;5.20;;;2.05;;
9140;SDS011;46330;50.822;7.126;2022-07-29T05:33:49;5.20;;;1.92;;
9140;SDS011;46330;50.822;7.126;2022-07-29T05:36:17;9.27;;;2.40;;
9140;SDS011;46330;50.822;7.126;2022-07-29T05:38:45;9.25;;;3.30;;
9140;SDS011;46330;50.822;7.126;2022-07-29T05:41:13;6.65;;;2.00;;
9140;SDS011;46330;50.822;7.126;2022-07-29T05:43:41;5.85;;;1.90;;
9140;SDS011;46330;50.822;7.126;2022-07-29T05:46:10;8.05;;;2.10;;
9140;SDS011;46330;50.822;7.126;2022-07-29T05:48:38;5.82;;;1.90;;
9140;SDS011;46330;50.822;7.126;2022-07-29T05:51:06;4.15;;;2.00;;
9140;SDS011;46330;50.822;7.126;2022-07-29T05:53:34;10.25;;;2.15;;
9140;SDS011;46330;50.822;7.126;2022-07-29T05:56:02;6.40;;;1.70;;
9140;SDS011;46330;50.822;7.126;2022-07-29T05:58:30;6.90;;;1.90;;
9140;SDS011;46330;50.822;7.126;2022-07-29T06:00:59;7.65;;;1.73;;
9140;SDS011;46330;50.822;7.126;2022-07-29T06:03:28;7.25;;;1.90;;
9140;SDS011;46330;50.822;7.126;2022-07-29T06:05:56;8.05;;;2.33;;
9140;SDS011;46330;50.822;7.126;2022-07-29T06:08:24;6.07;;;1.90;;
9140;SDS011;46330;50.822;7.126;2022-07-29T06:10:52;7.10;;;2.00;;
9140;SDS011;46330;50.822;7.126;2022-07-29T06:13:20;6.80;;;2.20;;
9140;SDS011;46330;50.822;7.126;2022-07-29T06:15:48;5.70;;;1.80;;
9140;SDS011;46330;50.822;7.126;2022-07-29T06:18:16;8.25;;;2.35;;
9140;SDS011;46330;50.822;7.126;2022-07-29T06:20:45;6.38;;;2.70;;
9140;SDS011;46330;50.822;7.126;2022-07-29T06:23:13;8.27;;;2.67;;
9140;SDS011;46330;50.822;7.126;2022-07-29T06:25:41;7.32;;;2.33;;
9140;SDS011;46330;50.822;7.126;2022-07-29T06:28:09;6.18;;;2.33;;
9140;SDS011;46330;50.822;7.126;2022-07-29T06:30:38;7.57;;;2.15;;
9140;SDS011;46330;50.822;7.126;2022-07-29T06:33:06;4.72;;;2.13;;
9140;SDS011;46330;50.822;7.126;2022-07-29T06:35:34;5.82;;;2.00;;
9140;SDS011;46330;50.822;7.126;2022-07-29T06:38:09;11.23;;;1.88;;
9140;SDS011;46330;50.822;7.126;2022-07-29T06:40:57;6.45;;;1.95;;
9140;SDS011;46330;50.822;7.126;2022-07-29T06:43:29;7.93;;;2.00;;
9140;SDS011;46330;50.822;7.126;2022-07-29T06:46:00;6.45;;;2.15;;
9140;SDS011;46330;50.822;7.126;2022-07-29T06:48:29;5.07;;;1.90;;
9140;SDS011;46330;50.822;7.126;2022-07-29T06:50:58;6.07;;;2.17;;
9140;SDS011;46330;50.822;7.126;2022-07-29T06:53:27;10.38;;;2.78;;
9140;SDS011;46330;50.822;7.126;2022-07-29T06:55:56;5.63;;;1.73;;
9140;SDS011;46330;50.822;7.126;2022-07-29T06:58:25;5.53;;;1.75;;
9140;SDS011;46330;50.822;7.126;2022-07-29T07:00:56;6.63;;;2.00;;
9140;SDS011;46330;50.822;7.126;2022-07-29T07:03:25;9.48;;;2.30;;
9140;SDS011;46330;50.822;7.126;2022-07-29T07:05:53;8.40;;;2.03;;
9140;SDS011;46330;50.822;7.126;2022-07-29T07:08:22;6.78;;;1.88;;
9140;SDS011;46330;50.822;7.126;2022-07-29T07:10:52;5.95;;;1.80;;
9140;SDS011;46330;50.822;7.126;2022-07-29T07:13:22;6.13;;;1.90;;
9140;SDS011;46330;50.822;7.126;2022-07-29T07:15:50;13.75;;;1.95;;
9140;SDS011;46330;50.822;7.126;2022-07-29T07:18:18;9.27;;;2.15;;
9140;SDS011;46330;50.822;7.126;2022-07-29T07:20:46;6.80;;;2.13;;
9140;SDS011;46330;50.822;7.126;2022-07-29T07:23:15;5.20;;;1.80;;
9140;SDS011;46330;50.822;7.126;2022-07-29T07:25:43;8.00;;;2.13;;
9140;SDS011;46330;50.822;7.126;2022-07-29T07:28:12;7.90;;;1.80;;
9140;SDS011;46330;50.822;7.126;2022-07-29T07:30:40;4.10;;;1.80;;
9140;SDS011;46330;50.822;7.126;2022-07-29T07:33:08;3.95;;;1.80;;
9140;SDS011;46330;50.822;7.126;2022-07-29T07:35:36;8.93;;;2.05;;
9140;SDS011;46330;50.822;7.126;2022-07-29T07:38:04;11.23;;;2.10;;
9140;SDS011;46330;50.822;7.126;2022-07-29T07:40:33;7.18;;;1.77;;
9140;SDS011;46330;50.822;7.126;2022-07-29T07:43:00;7.43;;;1.80;;
9140;SDS011;46330;50.822;7.126;2022-07-29T07:45:30;6.68;;;1.80;;
9140;SDS011;46330;50.822;7.126;2022-07-29T07:48:00;6.72;;;1.88;;
9140;SDS011;46330;50.822;7.126;2022-07-29T07:50:27;7.47;;;1.80;;
9140;SDS011;46330;50.822;7.126;2022-07-29T07:52:55;6.03;;;1.70;;
9140;SDS011;46330;50.822;7.126;2022-07-29T07:55:24;6.63;;;2.00;;
9140;SDS011;46330;50.822;7.126;2022-07-29T07:57:53;8.80;;;3.67;;
9140;SDS011;46330;50.822;7.126;2022-07-29T08:00:22;10.65;;;3.08;;
9140;SDS011;46330;50.822;7.126;2022-07-29T08:02:51;4.13;;;2.00;;
9140;SDS011;46330;50.822;7.126;2022-07-29T08:05:19;6.53;;;1.90;;
9140;SDS011;46330;50.822;7.126;2022-07-29T08:07:47;9.57;;;1.77;;
9140;SDS011;46330;50.822;7.126;2022-07-29T08:10:16;6.30;;;1.90;;
9140;SDS011;46330;50.822;7.126;2022-07-29T08:13:05;5.25;;;1.73;;
9140;SDS011;46330;50.822;7.126;2022-07-29T08:15:34;9.73;;;2.10;;
9140;SDS011;46330;50.822;7.126;2022-07-29T08:18:04;7.53;;;2.08;;
9140;SDS011;46330;50.822;7.126;2022-07-29T08:20:34;7.00;;;1.95;;
9140;SDS011;46330;50.822;7.126;2022-07-29T08:23:03;5.45;;;1.90;;
9140;SDS011;46330;50.822;7.126;2022-07-29T08:25:32;10.32;;;2.75;;
9140;SDS011;46330;50.822;7.126;2022-07-29T08:28:05;8.70;;;2.83;;
9140;SDS011;46330;50.822;7.126;2022-07-29T08:30:33;7.45;;;2.50;;
9140;SDS011;46330;50.822;7.126;2022-07-29T08:33:01;6.10;;;2.10;;
9140;SDS011;46330;50.822;7.126;2022-07-29T08:35:31;12.23;;;2.25;;
9140;SDS011;46330;50.822;7.126;2022-07-29T08:38:02;7.20;;;2.25;;
9140;SDS011;46330;50.822;7.126;2022-07-29T08:40:30;6.03;;;1.90;;
9140;SDS011;46330;50.822;7.126;2022-07-29T08:42:59;9.10;;;2.08;;
9140;SDS011;46330;50.822;7.126;2022-07-29T08:45:35;13.27;;;2.25;;
9140;SDS011;46330;50.822;7.126;2022-07-29T08:48:15;7.75;;;2.10;;
9140;SDS011;46330;50.822;7.126;2022-07-29T08:50:45;6.25;;;2.05;;
9140;SDS011;46330;50.822;7.126;2022-07-29T08:53:14;8.85;;;2.00;;
9140;SDS011;46330;50.822;7.126;2022-07-29T08:55:46;11.73;;;2.40;;
9140;SDS011;46330;50.822;7.126;2022-07-29T08:58:16;7.68;;;2.10;;
9140;SDS011;46330;50.822;7.126;2022-07-29T09:00:50;7.82;;;1.95;;
9140;SDS011;46330;50.822;7.126;2022-07-29T09:03:23;5.97;;;1.90;;
9140;SDS011;46330;50.822;7.126;2022-07-29T09:05:53;6.07;;;2.03;;
9140;SDS011;46330;50.822;7.126;2022-07-29T09:08:21;14.45;;;2.05;;
9140;SDS011;46330;50.822;7.126;2022-07-29T09:10:50;16.20;;;2.83;;
9140;SDS011;46330;50.822;7.126;2022-07-29T09:13:18;9.25;;;2.22;;
9140;SDS011;46330;50.822;7.126;2022-07-29T09:15:46;10.10;;;2.15;;
9140;SDS011;46330;50.822;7.126;2022-07-29T09:21:02;9.40;;;2.22;;
9140;SDS011;46330;50.822;7.126;2022-07-29T09:26:34;11.05;;;2.08;;
9140;SDS011;46330;50.822;7.126;2022-07-29T09:29:10;8.35;;;1.80;;
9140;SDS011;46330;50.822;7.126;2022-07-29T09:31:41;8.05;;;2.17;;
9140;SDS011;46330;50.822;7.126;2022-07-29T09:34:11;9.82;;;2.20;;
9140;SDS011;46330;50.822;7.126;2022-07-29T09:36:42;6.18;;;2.10;;
9140;SDS011;46330;50.822;7.126;2022-07-29T09:39:11;7.20;;;2.45;;
9140;SDS011;46330;50.822;7.126;2022-07-29T09:41:43;6.85;;;2.40;;
9140;SDS011;46330;50.822;7.126;2022-07-29T09:44:15;7.82;;;2.15;;
9140;SDS011;46330;50.822;7.126;2022-07-29T09:46:54;9.68;;;2.22;;
9140;SDS011;46330;50.822;7.126;2022-07-29T09:49:25;6.03;;;2.00;;
9140;SDS011;46330;50.822;7.126;2022-07-29T09:52:04;9.95;;;2.13;;
9140;SDS011;46330;50.822;7.126;2022-07-29T09:54:34;5.47;;;1.77;;
9140;SDS011;46330;50.822;7.126;2022-07-29T09:57:07;10.40;;;2.00;;
9140;SDS011;46330;50.822;7.126;2022-07-29T09:59:38;9.43;;;2.50;;
9140;SDS011;46330;50.822;7.126;2022-07-29T10:02:15;9.25;;;2.58;;
9140;SDS011;46330;50.822;7.126;2022-07-29T10:04:50;9.95;;;2.20;;
9140;SDS011;46330;50.822;7.126;2022-07-29T10:07:18;9.07;;;2.20;;
9140;SDS011;46330;50.822;7.126;2022-07-29T10:09:49;8.18;;;2.30;;
9140;SDS011;46330;50.822;7.126;2022-07-29T10:12:20;7.20;;;2.50;;
9140;SDS011;46330;50.822;7.126;2022-07-29T10:14:49;8.93;;;2.95;;
9140;SDS011;46330;50.822;7.126;2022-07-29T10:17:18;14.27;;;2.70;;
9140;SDS011;46330;50.822;7.126;2022-07-29T10:19:48;5.30;;;2.20;;
9140;SDS011;46330;50.822;7.126;2022-07-29T10:22:18;6.50;;;2.03;;
9140;SDS011;46330;50.822;7.126;2022-07-29T10:25:07;10.05;;;2.58;;
9140;SDS011;46330;50.822;7.126;2022-07-29T10:27:36;7.07;;;2.20;;
9140;SDS011;46330;50.822;7.126;2022-07-29T10:30:06;9.23;;;2.30;;
9140;SDS011;46330;50.822;7.126;2022-07-29T10:32:37;12.63;;;2.40;;
9140;SDS011;46330;50.822;7.126;2022-07-29T10:35:22;9.85;;;2.50;;
9140;SDS011;46330;50.822;7.126;2022-07-29T10:38:15;7.38;;;2.40;;
9140;SDS011;46330;50.822;7.126;2022-07-29T10:41:13;9.68;;;2.53;;
9140;SDS011;46330;50.822;7.126;2022-07-29T10:44:09;10.85;;;2.53;;
9140;SDS011;46330;50.822;7.126;2022-07-29T10:46:48;9.65;;;2.58;;
9140;SDS011;46330;50.822;7.126;2022-07-29T10:49:17;9.00;;;2.78;;
9140;SDS011;46330;50.822;7.126;2022-07-29T10:51:50;10.38;;;2.80;;
9140;SDS011;46330;50.822;7.126;2022-07-29T10:57:25;9.95;;;2.72;;
9140;SDS011;46330;50.822;7.126;2022-07-29T11:00:28;6.50;;;2.25;;
9140;SDS011;46330;50.822;7.126;2022-07-29T11:02:57;5.60;;;2.22;;
9140;SDS011;46330;50.822;7.126;2022-07-29T11:08:25;9.52;;;2.63;;
9140;SDS011;46330;50.822;7.126;2022-07-29T11:14:18;8.50;;;2.20;;
9140;SDS011;46330;50.822;7.126;2022-07-29T11:16:59;10.13;;;3.10;;
9140;SDS011;46330;50.822;7.126;2022-07-29T11:19:32;7.18;;;2.33;;
9140;SDS011;46330;50.822;7.126;2022-07-29T11:22:01;9.02;;;2.00;;
9140;SDS011;46330;50.822;7.126;2022-07-29T11:24:30;4.95;;;1.70;;
9140;SDS011;46330;50.822;7.126;2022-07-29T11:27:07;6.55;;;2.33;;
9140;SDS011;46330;50.822;7.126;2022-07-29T11:29:50;5.68;;;1.85;;
9140;SDS011;46330;50.822;7.126;2022-07-29T11:32:21;5.63;;;1.85;;
9140;SDS011;46330;50.822;7.126;2022-07-29T11:37:44;4.90;;;1.90;;
9140;SDS011;46330;50.822;7.126;2022-07-29T11:40:21;7.38;;;2.00;;
9140;SDS011;46330;50.822;7.126;2022-07-29T11:42:49;8.15;;;2.10;;
9140;SDS011;46330;50.822;7.126;2022-07-29T11:45:44;7.40;;;2.00;;
9140;SDS011;46330;50.822;7.126;2022-07-29T11:48:17;4.63;;;1.83;;
9140;SDS011;46330;50.822;7.126;2022-07-29T11:50:58;5.22;;;2.00;;
9140;SDS011;46330;50.822;7.126;2022-07-29T11:53:28;5.63;;;1.70;;
9140;SDS011;46330;50.822;7.126;2022-07-29T11:55:58;5.40;;;1.77;;
9140;SDS011;46330;50.822;7.126;2022-07-29T11:58:47;4.90;;;1.73;;
9140;SDS011;46330;50.822;7.126;2022-07-29T12:01:17;4.45;;;1.80;;
9140;SDS011;46330;50.822;7.126;2022-07-29T12:03:47;12.13;;;2.10;;
9140;SDS011;46330;50.822;7.126;2022-07-29T12:06:32;8.57;;;2.53;;
9140;SDS011;46330;50.822;7.126;2022-07-29T12:09:00;5.03;;;1.83;;
9140;SDS011;46330;50.822;7.126;2022-07-29T12:11:39;4.95;;;1.70;;
9140;SDS011;46330;50.822;7.126;2022-07-29T12:14:24;4.45;;;1.73;;
9140;SDS011;46330;50.822;7.126;2022-07-29T12:16:55;4.07;;;1.90;;
9140;SDS011;46330;50.822;7.126;2022-07-29T12:19:24;7.38;;;2.40;;
9140;SDS011;46330;50.822;7.126;2022-07-29T12:21:52;7.50;;;1.95;;
9140;SDS011;46330;50.822;7.126;2022-07-29T12:24:25;6.28;;;2.30;;
9140;SDS011;46330;50.822;7.126;2022-07-29T12:26:53;8.75;;;2.47;;
9140;SDS011;46330;50.822;7.126;2022-07-29T12:29:22;5.65;;;2.38;;
9140;SDS011;46330;50.822;7.126;2022-07-29T12:32:02;13.45;;;2.05;;
9140;SDS011;46330;50.822;7.126;2022-07-29T12:34:44;8.73;;;2.47;;
9140;SDS011;46330;50.822;7.126;2022-07-29T12:37:12;5.07;;;2.00;;
9140;SDS011;46330;50.822;7.126;2022-07-29T12:39:40;9.60;;;2.08;;
9140;SDS011;46330;50.822;7.126;2022-07-29T12:42:11;5.85;;;1.95;;
9140;SDS011;46330;50.822;7.126;2022-07-29T12:44:44;5.38;;;1.80;;
9140;SDS011;46330;50.822;7.126;2022-07-29T12:47:15;6.72;;;1.77;;
9140;SDS011;46330;50.822;7.126;2022-07-29T12:49:44;9.25;;;2.20;;
9140;SDS011;46330;50.822;7.126;2022-07-29T12:52:26;7.90;;;2.47;;
9140;SDS011;46330;50.822;7.126;2022-07-29T12:54:55;6.63;;;2.30;;
9140;SDS011;46330;50.822;7.126;2022-07-29T12:57:24;7.30;;;2.10;;
9140;SDS011;46330;50.822;7.126;2022-07-29T13:00:03;6.10;;;2.40;;
9140;SDS011;46330;50.822;7.126;2022-07-29T13:02:35;6.07;;;2.40;;
9140;SDS011;46330;50.822;7.126;2022-07-29T13:05:04;7.68;;;1.92;;
9140;SDS011;46330;50.822;7.126;2022-07-29T13:07:34;4.82;;;2.20;;
9140;SDS011;46330;50.822;7.126;2022-07-29T13:10:22;5.85;;;2.03;;
9140;SDS011;46330;50.822;7.126;2022-07-29T13:13:04;5.97;;;2.05;;
9140;SDS011;46330;50.822;7.126;2022-07-29T13:15:34;7.25;;;2.35;;
9140;SDS011;46330;50.822;7.126;2022-07-29T13:18:04;6.18;;;2.17;;
9140;SDS011;46330;50.822;7.126;2022-07-29T13:20:52;7.60;;;2.28;;
9140;SDS011;46330;50.822;7.126;2022-07-29T13:23:20;7.70;;;2.20;;
9140;SDS011;46330;50.822;7.126;2022-07-29T13:25:48;5.90;;;2.72;;
9140;SDS011;46330;50.822;7.126;2022-07-29T13:28:17;7.20;;;2.42;;
9140;SDS011;46330;50.822;7.126;2022-07-29T13:30:45;5.97;;;2.20;;
9140;SDS011;46330;50.822;7.126;2022-07-29T13:33:14;5.40;;;2.17;;
9140;SDS011;46330;50.822;7.126;2022-07-29T13:35:42;4.88;;;1.65;;
9140;SDS011;46330;50.822;7.126;2022-07-29T13:38:10;7.18;;;2.03;;
9140;SDS011;46330;50.822;7.126;2022-07-29T13:40:38;3.95;;;1.85;;
9140;SDS011;46330;50.822;7.126;2022-07-29T13:43:07;10.07;;;2.47;;
9140;SDS011;46330;50.822;7.126;2022-07-29T13:45:36;5.07;;;1.90;;
9140;SDS011;46330;50.822;7.126;2022-07-29T13:48:05;6.18;;;1.98;;
9140;SDS011;46330;50.822;7.126;2022-07-29T13:50:35;7.13;;;1.80;;
9140;SDS011;46330;50.822;7.126;2022-07-29T13:53:03;5.57;;;1.88;;
9140;SDS011;46330;50.822;7.126;2022-07-29T13:55:31;6.88;;;1.77;;
9140;SDS011;46330;50.822;7.126;2022-07-29T13:57:59;7.63;;;2.50;;
9140;SDS011;46330;50.822;7.126;2022-07-29T14:00:29;6.32;;;2.10;;
9140;SDS011;46330;50.822;7.126;2022-07-29T14:02:57;4.65;;;1.80;;
9140;SDS011;46330;50.822;7.126;2022-07-29T14:05:25;7.78;;;2.10;;
9140;SDS011;46330;50.822;7.126;2022-07-29T14:07:55;5.03;;;1.83;;
9140;SDS011;46330;50.822;7.126;2022-07-29T14:10:23;5.45;;;1.65;;
9140;SDS011;46330;50.822;7.126;2022-07-29T14:12:50;6.78;;;1.95;;
9140;SDS011;46330;50.822;7.126;2022-07-29T14:15:18;5.40;;;2.30;;
9140;SDS011;46330;50.822;7.126;2022-07-29T14:17:46;3.75;;;2.28;;
9140;SDS011;46330;50.822;7.126;2022-07-29T14:20:14;3.80;;;1.92;;
9140;SDS011;46330;50.822;7.126;2022-07-29T14:22:42;5.32;;;1.70;;
9140;SDS011;46330;50.822;7.126;2022-07-29T14:25:12;4.43;;;1.80;;
9140;SDS011;46330;50.822;7.126;2022-07-29T14:27:41;4.85;;;2.08;;
9140;SDS011;46330;50.822;7.126;2022-07-29T14:30:10;5.20;;;1.90;;
9140;SDS011;46330;50.822;7.126;2022-07-29T14:32:38;6.57;;;2.10;;
9140;SDS011;46330;50.822;7.126;2022-07-29T14:35:06;3.83;;;2.05;;
9140;SDS011;46330;50.822;7.126;2022-07-29T14:37:35;6.13;;;2.30;;
9140;SDS011;46330;50.822;7.126;2022-07-29T14:40:06;8.23;;;2.63;;
9140;SDS011;46330;50.822;7.126;2022-07-29T14:42:36;4.88;;;2.28;;
9140;SDS011;46330;50.822;7.126;2022-07-29T14:45:05;7.95;;;2.55;;
9140;SDS011;46330;50.822;7.126;2022-07-29T14:47:35;7.95;;;2.63;;
9140;SDS011;46330;50.822;7.126;2022-07-29T14:50:04;7.47;;;2.30;;
9140;SDS011;46330;50.822;7.126;2022-07-29T14:52:33;8.23;;;2.50;;
9140;SDS011;46330;50.822;7.126;2022-07-29T14:55:02;9.55;;;2.90;;
9140;SDS011;46330;50.822;7.126;2022-07-29T14:57:46;7.93;;;3.97;;
9140;SDS011;46330;50.822;7.126;2022-07-29T15:00:16;9.38;;;3.35;;
9140;SDS011;46330;50.822;7.126;2022-07-29T15:02:44;6.95;;;2.83;;
9140;SDS011;46330;50.822;7.126;2022-07-29T15:05:27;7.13;;;3.00;;
9140;SDS011;46330;50.822;7.126;2022-07-29T15:07:56;7.47;;;2.78;;
9140;SDS011;46330;50.822;7.126;2022-07-29T15:10:24;8.45;;;3.10;;
9140;SDS011;46330;50.822;7.126;2022-07-29T15:12:53;6.15;;;2.60;;
9140;SDS011;46330;50.822;7.126;2022-07-29T15:15:21;10.90;;;2.78;;
9140;SDS011;46330;50.822;7.126;2022-07-29T15:17:50;7.43;;;2.80;;
9140;SDS011;46330;50.822;7.126;2022-07-29T15:20:17;9.77;;;3.03;;
9140;SDS011;46330;50.822;7.126;2022-07-29T15:22:45;9.52;;;2.83;;
9140;SDS011;46330;50.822;7.126;2022-07-29T15:25:13;8.20;;;2.90;;
9140;SDS011;46330;50.822;7.126;2022-07-29T15:27:41;10.90;;;3.85;;
9140;SDS011;46330;50.822;7.126;2022-07-29T15:30:19;8.77;;;3.08;;
9140;SDS011;46330;50.822;7.126;2022-07-29T15:32:59;7.72;;;2.75;;
9140;SDS011;46330;50.822;7.126;2022-07-29T15:35:28;10.13;;;3.05;;
9140;SDS011;46330;50.822;7.126;2022-07-29T15:37:56;11.20;;;2.90;;
9140;SDS011;46330;50.822;7.126;2022-07-29T15:40:24;9.80;;;2.63;;
9140;SDS011;46330;50.822;7.126;2022-07-29T15:42:52;11.68;;;3.45;;
9140;SDS011;46330;50.822;7.126;2022-07-29T15:45:21;11.90;;;4.60;;
9140;SDS011;46330;50.822;7.126;2022-07-29T15:47:49;12.65;;;3.50;;